sensor_id;sensor_type;location;lat;lon;timestamp;pressure;altitude;pressure_sealevel;temperature
64916;BMP280;51427;-27.442;153.014;2023-05-10T00:00:27;102357.09;;;22.28
64916;BMP280;51427;-27.442;153.014;2023-05-10T00:02:55;102357.31;;;21.99
64916;BMP280;51427;-27.442;153.014;2023-05-10T00:05:22;102356.44;;;22.13
64916;BMP280;51427;-27.442;153.014;2023-05-10T00:07:49;102346.13;;;22.65
64916;BMP280;51427;-27.442;153.014;2023-05-10T00:10:16;102339.06;;;22.69
64916;BMP280;51427;-27.442;153.014;2023-05-10T00:12:44;102335.75;;;23.04
64916;BMP280;51427;-27.442;153.014;2023-05-10T00:15:11;102334.06;;;22.55
64916;BMP280;51427;-27.442;153.014;2023-05-10T00:17:38;102334.97;;;22.78
64916;BMP280;51427;-27.442;153.014;2023-05-10T00:20:06;102323.94;;;22.90
64916;BMP280;51427;-27.442;153.014;2023-05-10T00:22:33;102326.41;;;22.67
64916;BMP280;51427;-27.442;153.014;2023-05-10T00:25:01;102319.38;;;23.19
64916;BMP280;51427;-27.442;153.014;2023-05-10T00:27:29;102315.84;;;23.09
64916;BMP280;51427;-27.442;153.014;2023-05-10T00:29:57;102311.09;;;23.51
64916;BMP280;51427;-27.442;153.014;2023-05-10T00:32:24;102312.63;;;23.18
64916;BMP280;51427;-27.442;153.014;2023-05-10T00:34:52;102298.59;;;23.35
64916;BMP280;51427;-27.442;153.014;2023-05-10T00:37:19;102307.47;;;23.66
64916;BMP280;51427;-27.442;153.014;2023-05-10T00:39:47;102312.06;;;23.61
64916;BMP280;51427;-27.442;153.014;2023-05-10T00:42:14;102307.66;;;23.86
64916;BMP280;51427;-27.442;153.014;2023-05-10T00:44:42;102309.69;;;24.38
64916;BMP280;51427;-27.442;153.014;2023-05-10T00:47:10;102293.28;;;23.96
64916;BMP280;51427;-27.442;153.014;2023-05-10T00:49:38;102296.75;;;23.95
64916;BMP280;51427;-27.442;153.014;2023-05-10T00:52:06;102293.41;;;24.50
64916;BMP280;51427;-27.442;153.014;2023-05-10T00:54:33;102285.50;;;24.64
64916;BMP280;51427;-27.442;153.014;2023-05-10T00:57:01;102300.69;;;23.77
64916;BMP280;51427;-27.442;153.014;2023-05-10T00:59:30;102276.06;;;24.32
64916;BMP280;51427;-27.442;153.014;2023-05-10T01:01:58;102274.50;;;24.84
64916;BMP280;51427;-27.442;153.014;2023-05-10T01:04:26;102274.06;;;24.57
64916;BMP280;51427;-27.442;153.014;2023-05-10T01:06:53;102263.59;;;24.38
64916;BMP280;51427;-27.442;153.014;2023-05-10T01:09:22;102260.13;;;24.39
64916;BMP280;51427;-27.442;153.014;2023-05-10T01:11:50;102259.38;;;25.03
64916;BMP280;51427;-27.442;153.014;2023-05-10T01:14:18;102264.53;;;23.92
64916;BMP280;51427;-27.442;153.014;2023-05-10T01:16:48;102246.50;;;24.39
64916;BMP280;51427;-27.442;153.014;2023-05-10T01:19:24;102250.78;;;23.02
64916;BMP280;51427;-27.442;153.014;2023-05-10T01:25:03;102243.97;;;23.94
64916;BMP280;51427;-27.442;153.014;2023-05-10T01:31:00;102247.25;;;23.85
64916;BMP280;51427;-27.442;153.014;2023-05-10T01:49:54;102207.03;;;24.09
64916;BMP280;51427;-27.442;153.014;2023-05-10T01:52:35;102200.88;;;24.76
64916;BMP280;51427;-27.442;153.014;2023-05-10T01:55:11;102211.19;;;22.96
64916;BMP280;51427;-27.442;153.014;2023-05-10T01:57:42;102200.94;;;23.09
64916;BMP280;51427;-27.442;153.014;2023-05-10T02:00:11;102193.78;;;23.48
64916;BMP280;51427;-27.442;153.014;2023-05-10T02:02:44;102184.69;;;23.89
64916;BMP280;51427;-27.442;153.014;2023-05-10T02:05:13;102187.34;;;23.42
64916;BMP280;51427;-27.442;153.014;2023-05-10T02:07:42;102172.03;;;23.53
64916;BMP280;51427;-27.442;153.014;2023-05-10T02:10:12;102178.44;;;23.82
64916;BMP280;51427;-27.442;153.014;2023-05-10T02:12:44;102173.09;;;24.28
64916;BMP280;51427;-27.442;153.014;2023-05-10T02:15:18;102175.56;;;23.18
64916;BMP280;51427;-27.442;153.014;2023-05-10T02:17:48;102166.59;;;24.46
64916;BMP280;51427;-27.442;153.014;2023-05-10T02:20:17;102157.25;;;24.56
64916;BMP280;51427;-27.442;153.014;2023-05-10T02:22:48;102156.59;;;24.32
64916;BMP280;51427;-27.442;153.014;2023-05-10T02:25:18;102161.13;;;23.51
64916;BMP280;51427;-27.442;153.014;2023-05-10T02:27:47;102148.91;;;24.21
64916;BMP280;51427;-27.442;153.014;2023-05-10T02:30:16;102143.38;;;25.11
64916;BMP280;51427;-27.442;153.014;2023-05-10T02:32:45;102141.56;;;24.92
64916;BMP280;51427;-27.442;153.014;2023-05-10T02:35:13;102149.13;;;24.51
64916;BMP280;51427;-27.442;153.014;2023-05-10T02:37:42;102149.47;;;24.14
64916;BMP280;51427;-27.442;153.014;2023-05-10T02:40:11;102138.19;;;25.22
64916;BMP280;51427;-27.442;153.014;2023-05-10T02:42:42;102134.94;;;24.58
64916;BMP280;51427;-27.442;153.014;2023-05-10T02:45:29;102118.03;;;25.79
64916;BMP280;51427;-27.442;153.014;2023-05-10T02:47:58;102115.13;;;25.93
64916;BMP280;51427;-27.442;153.014;2023-05-10T02:50:28;102121.53;;;26.56
64916;BMP280;51427;-27.442;153.014;2023-05-10T02:53:01;102105.22;;;25.79
64916;BMP280;51427;-27.442;153.014;2023-05-10T02:55:35;102106.00;;;24.14
64916;BMP280;51427;-27.442;153.014;2023-05-10T02:58:04;102111.38;;;23.22
64916;BMP280;51427;-27.442;153.014;2023-05-10T03:00:32;102111.34;;;24.44
64916;BMP280;51427;-27.442;153.014;2023-05-10T03:02:59;102101.63;;;24.69
64916;BMP280;51427;-27.442;153.014;2023-05-10T03:05:28;102083.72;;;25.20
64916;BMP280;51427;-27.442;153.014;2023-05-10T03:07:55;102106.78;;;23.60
64916;BMP280;51427;-27.442;153.014;2023-05-10T03:10:27;102112.88;;;23.92
64916;BMP280;51427;-27.442;153.014;2023-05-10T03:16:21;102096.06;;;23.33
64916;BMP280;51427;-27.442;153.014;2023-05-10T03:21:53;102101.94;;;24.22
64916;BMP280;51427;-27.442;153.014;2023-05-10T03:24:27;102094.78;;;24.58
64916;BMP280;51427;-27.442;153.014;2023-05-10T03:26:56;102085.66;;;23.91
64916;BMP280;51427;-27.442;153.014;2023-05-10T03:29:26;102091.91;;;24.30
64916;BMP280;51427;-27.442;153.014;2023-05-10T03:31:54;102091.69;;;24.22
64916;BMP280;51427;-27.442;153.014;2023-05-10T03:34:26;102094.38;;;24.74
64916;BMP280;51427;-27.442;153.014;2023-05-10T03:36:53;102070.19;;;25.98
64916;BMP280;51427;-27.442;153.014;2023-05-10T03:39:21;102078.28;;;24.83
64916;BMP280;51427;-27.442;153.014;2023-05-10T03:41:49;102087.03;;;24.38
64916;BMP280;51427;-27.442;153.014;2023-05-10T03:44:17;102078.09;;;23.78
64916;BMP280;51427;-27.442;153.014;2023-05-10T03:46:45;102087.69;;;23.31
64916;BMP280;51427;-27.442;153.014;2023-05-10T03:49:12;102079.13;;;24.30
64916;BMP280;51427;-27.442;153.014;2023-05-10T03:51:40;102074.06;;;23.98
64916;BMP280;51427;-27.442;153.014;2023-05-10T03:54:07;102080.59;;;23.35
64916;BMP280;51427;-27.442;153.014;2023-05-10T03:56:35;102079.88;;;23.78
64916;BMP280;51427;-27.442;153.014;2023-05-10T03:59:02;102083.59;;;23.96
64916;BMP280;51427;-27.442;153.014;2023-05-10T04:01:34;102086.63;;;23.79
64916;BMP280;51427;-27.442;153.014;2023-05-10T04:04:02;102081.84;;;23.74
64916;BMP280;51427;-27.442;153.014;2023-05-10T04:06:30;102072.34;;;24.51
64916;BMP280;51427;-27.442;153.014;2023-05-10T04:08:58;102076.13;;;24.36
64916;BMP280;51427;-27.442;153.014;2023-05-10T04:11:28;102074.38;;;24.15
64916;BMP280;51427;-27.442;153.014;2023-05-10T04:13:55;102083.47;;;23.75
64916;BMP280;51427;-27.442;153.014;2023-05-10T04:16:23;102078.72;;;23.71
64916;BMP280;51427;-27.442;153.014;2023-05-10T04:18:51;102070.44;;;24.00
64916;BMP280;51427;-27.442;153.014;2023-05-10T04:21:18;102061.94;;;24.00
64916;BMP280;51427;-27.442;153.014;2023-05-10T04:23:46;102063.59;;;23.68
64916;BMP280;51427;-27.442;153.014;2023-05-10T04:26:14;102056.09;;;23.21
64916;BMP280;51427;-27.442;153.014;2023-05-10T04:28:41;102067.78;;;23.80
64916;BMP280;51427;-27.442;153.014;2023-05-10T04:31:09;102069.38;;;23.59
64916;BMP280;51427;-27.442;153.014;2023-05-10T04:33:37;102072.28;;;23.55
64916;BMP280;51427;-27.442;153.014;2023-05-10T04:36:05;102058.25;;;23.04
64916;BMP280;51427;-27.442;153.014;2023-05-10T04:38:33;102069.03;;;22.97
64916;BMP280;51427;-27.442;153.014;2023-05-10T04:41:08;102075.94;;;23.18
64916;BMP280;51427;-27.442;153.014;2023-05-10T04:43:36;102069.56;;;23.34
64916;BMP280;51427;-27.442;153.014;2023-05-10T04:46:05;102076.56;;;23.54
64916;BMP280;51427;-27.442;153.014;2023-05-10T04:48:33;102070.41;;;23.57
64916;BMP280;51427;-27.442;153.014;2023-05-10T04:51:01;102062.88;;;23.55
64916;BMP280;51427;-27.442;153.014;2023-05-10T04:53:30;102063.94;;;23.64
64916;BMP280;51427;-27.442;153.014;2023-05-10T04:55:58;102063.81;;;23.54
64916;BMP280;51427;-27.442;153.014;2023-05-10T04:58:25;102074.09;;;23.31
64916;BMP280;51427;-27.442;153.014;2023-05-10T05:00:53;102064.94;;;23.61
64916;BMP280;51427;-27.442;153.014;2023-05-10T05:03:20;102070.63;;;23.32
64916;BMP280;51427;-27.442;153.014;2023-05-10T05:05:49;102078.84;;;22.90
64916;BMP280;51427;-27.442;153.014;2023-05-10T05:08:16;102077.69;;;22.71
64916;BMP280;51427;-27.442;153.014;2023-05-10T05:10:44;102076.06;;;22.47
64916;BMP280;51427;-27.442;153.014;2023-05-10T05:13:13;102085.38;;;22.35
64916;BMP280;51427;-27.442;153.014;2023-05-10T05:15:40;102077.94;;;21.97
64916;BMP280;51427;-27.442;153.014;2023-05-10T05:18:08;102083.03;;;21.97
64916;BMP280;51427;-27.442;153.014;2023-05-10T05:20:35;102075.16;;;22.00
64916;BMP280;51427;-27.442;153.014;2023-05-10T05:23:03;102080.88;;;22.03
64916;BMP280;51427;-27.442;153.014;2023-05-10T05:25:31;102079.81;;;22.06
64916;BMP280;51427;-27.442;153.014;2023-05-10T05:27:58;102088.25;;;21.83
64916;BMP280;51427;-27.442;153.014;2023-05-10T05:30:26;102096.78;;;21.82
64916;BMP280;51427;-27.442;153.014;2023-05-10T05:32:54;102087.84;;;21.89
64916;BMP280;51427;-27.442;153.014;2023-05-10T05:35:21;102084.25;;;21.91
64916;BMP280;51427;-27.442;153.014;2023-05-10T05:37:49;102080.69;;;21.82
64916;BMP280;51427;-27.442;153.014;2023-05-10T05:40:16;102090.38;;;21.89
64916;BMP280;51427;-27.442;153.014;2023-05-10T05:42:44;102073.59;;;22.10
64916;BMP280;51427;-27.442;153.014;2023-05-10T05:45:12;102078.63;;;21.99
64916;BMP280;51427;-27.442;153.014;2023-05-10T05:47:40;102084.53;;;21.99
64916;BMP280;51427;-27.442;153.014;2023-05-10T05:50:08;102085.28;;;21.89
64916;BMP280;51427;-27.442;153.014;2023-05-10T05:52:36;102087.25;;;22.09
64916;BMP280;51427;-27.442;153.014;2023-05-10T05:55:03;102096.47;;;21.99
64916;BMP280;51427;-27.442;153.014;2023-05-10T05:57:31;102098.34;;;21.84
64916;BMP280;51427;-27.442;153.014;2023-05-10T05:59:59;102103.63;;;21.82
64916;BMP280;51427;-27.442;153.014;2023-05-10T06:02:27;102102.69;;;21.82
64916;BMP280;51427;-27.442;153.014;2023-05-10T06:04:54;102093.84;;;21.88
64916;BMP280;51427;-27.442;153.014;2023-05-10T06:07:22;102100.56;;;21.89
64916;BMP280;51427;-27.442;153.014;2023-05-10T06:09:49;102094.84;;;21.73
64916;BMP280;51427;-27.442;153.014;2023-05-10T06:12:17;102104.13;;;21.74
64916;BMP280;51427;-27.442;153.014;2023-05-10T06:14:44;102110.44;;;21.81
64916;BMP280;51427;-27.442;153.014;2023-05-10T06:17:12;102098.75;;;21.79
64916;BMP280;51427;-27.442;153.014;2023-05-10T06:19:40;102108.63;;;21.71
64916;BMP280;51427;-27.442;153.014;2023-05-10T06:22:07;102110.78;;;21.64
64916;BMP280;51427;-27.442;153.014;2023-05-10T06:24:35;102114.63;;;21.57
64916;BMP280;51427;-27.442;153.014;2023-05-10T06:27:03;102116.47;;;21.55
64916;BMP280;51427;-27.442;153.014;2023-05-10T06:29:31;102118.16;;;21.42
64916;BMP280;51427;-27.442;153.014;2023-05-10T06:31:58;102131.28;;;21.36
64916;BMP280;51427;-27.442;153.014;2023-05-10T06:34:26;102134.53;;;21.26
64916;BMP280;51427;-27.442;153.014;2023-05-10T06:36:54;102141.03;;;21.18
64916;BMP280;51427;-27.442;153.014;2023-05-10T06:39:21;102141.22;;;21.15
64916;BMP280;51427;-27.442;153.014;2023-05-10T06:41:49;102146.59;;;21.10
64916;BMP280;51427;-27.442;153.014;2023-05-10T06:44:17;102147.28;;;21.00
64916;BMP280;51427;-27.442;153.014;2023-05-10T06:46:44;102159.84;;;20.89
64916;BMP280;51427;-27.442;153.014;2023-05-10T06:49:12;102159.03;;;20.89
64916;BMP280;51427;-27.442;153.014;2023-05-10T06:51:39;102153.34;;;20.85
64916;BMP280;51427;-27.442;153.014;2023-05-10T06:54:07;102162.06;;;20.81
64916;BMP280;51427;-27.442;153.014;2023-05-10T06:56:34;102169.53;;;20.70
64916;BMP280;51427;-27.442;153.014;2023-05-10T06:59:02;102165.25;;;20.71
64916;BMP280;51427;-27.442;153.014;2023-05-10T07:01:30;102169.44;;;20.72
64916;BMP280;51427;-27.442;153.014;2023-05-10T07:03:57;102163.97;;;20.64
64916;BMP280;51427;-27.442;153.014;2023-05-10T07:06:25;102172.69;;;20.60
64916;BMP280;51427;-27.442;153.014;2023-05-10T07:08:52;102177.16;;;20.56
64916;BMP280;51427;-27.442;153.014;2023-05-10T07:11:20;102177.00;;;20.45
64916;BMP280;51427;-27.442;153.014;2023-05-10T07:13:48;102176.81;;;20.48
64916;BMP280;51427;-27.442;153.014;2023-05-10T07:16:15;102184.63;;;20.45
64916;BMP280;51427;-27.442;153.014;2023-05-10T07:18:43;102188.47;;;20.39
64916;BMP280;51427;-27.442;153.014;2023-05-10T07:21:10;102187.16;;;20.32
64916;BMP280;51427;-27.442;153.014;2023-05-10T07:23:38;102195.06;;;20.27
64916;BMP280;51427;-27.442;153.014;2023-05-10T07:26:06;102201.69;;;20.16
64916;BMP280;51427;-27.442;153.014;2023-05-10T07:28:33;102203.88;;;20.22
64916;BMP280;51427;-27.442;153.014;2023-05-10T07:31:04;102198.09;;;20.20
64916;BMP280;51427;-27.442;153.014;2023-05-10T07:33:31;102206.34;;;20.09
64916;BMP280;51427;-27.442;153.014;2023-05-10T07:35:59;102209.69;;;20.10
64916;BMP280;51427;-27.442;153.014;2023-05-10T07:38:27;102212.56;;;20.04
64916;BMP280;51427;-27.442;153.014;2023-05-10T07:40:54;102211.75;;;20.03
64916;BMP280;51427;-27.442;153.014;2023-05-10T07:43:22;102215.22;;;20.02
64916;BMP280;51427;-27.442;153.014;2023-05-10T07:45:50;102212.19;;;19.96
64916;BMP280;51427;-27.442;153.014;2023-05-10T07:48:18;102220.94;;;19.92
64916;BMP280;51427;-27.442;153.014;2023-05-10T07:50:45;102221.59;;;20.09
64916;BMP280;51427;-27.442;153.014;2023-05-10T07:53:13;102221.66;;;19.94
64916;BMP280;51427;-27.442;153.014;2023-05-10T07:55:41;102225.78;;;19.81
64916;BMP280;51427;-27.442;153.014;2023-05-10T07:58:08;102229.28;;;19.79
64916;BMP280;51427;-27.442;153.014;2023-05-10T08:00:36;102238.09;;;19.73
64916;BMP280;51427;-27.442;153.014;2023-05-10T08:03:06;102241.19;;;19.78
64916;BMP280;51427;-27.442;153.014;2023-05-10T08:05:33;102241.19;;;19.78
64916;BMP280;51427;-27.442;153.014;2023-05-10T08:08:01;102251.50;;;19.75
64916;BMP280;51427;-27.442;153.014;2023-05-10T08:10:29;102249.69;;;19.77
64916;BMP280;51427;-27.442;153.014;2023-05-10T08:12:57;102251.97;;;19.82
64916;BMP280;51427;-27.442;153.014;2023-05-10T08:15:25;102250.78;;;19.73
64916;BMP280;51427;-27.442;153.014;2023-05-10T08:17:53;102259.13;;;19.75
64916;BMP280;51427;-27.442;153.014;2023-05-10T08:20:21;102261.38;;;19.66
64916;BMP280;51427;-27.442;153.014;2023-05-10T08:22:48;102263.16;;;19.79
64916;BMP280;51427;-27.442;153.014;2023-05-10T08:25:16;102267.81;;;19.71
64916;BMP280;51427;-27.442;153.014;2023-05-10T08:27:44;102275.44;;;19.71
64916;BMP280;51427;-27.442;153.014;2023-05-10T08:30:12;102264.03;;;19.78
64916;BMP280;51427;-27.442;153.014;2023-05-10T08:32:39;102268.00;;;19.68
64916;BMP280;51427;-27.442;153.014;2023-05-10T08:35:07;102274.16;;;19.64
64916;BMP280;51427;-27.442;153.014;2023-05-10T08:37:35;102276.63;;;19.51
64916;BMP280;51427;-27.442;153.014;2023-05-10T08:40:02;102282.03;;;19.60
64916;BMP280;51427;-27.442;153.014;2023-05-10T08:42:31;102278.53;;;19.47
64916;BMP280;51427;-27.442;153.014;2023-05-10T08:45:03;102286.16;;;19.47
64916;BMP280;51427;-27.442;153.014;2023-05-10T08:47:31;102290.22;;;19.50
64916;BMP280;51427;-27.442;153.014;2023-05-10T08:49:59;102283.69;;;19.46
64916;BMP280;51427;-27.442;153.014;2023-05-10T08:52:28;102295.06;;;19.39
64916;BMP280;51427;-27.442;153.014;2023-05-10T08:54:57;102296.38;;;19.30
64916;BMP280;51427;-27.442;153.014;2023-05-10T08:57:25;102294.91;;;19.42
64916;BMP280;51427;-27.442;153.014;2023-05-10T08:59:53;102291.63;;;19.24
64916;BMP280;51427;-27.442;153.014;2023-05-10T09:02:21;102300.75;;;19.28
64916;BMP280;51427;-27.442;153.014;2023-05-10T09:04:50;102304.97;;;19.28
64916;BMP280;51427;-27.442;153.014;2023-05-10T09:07:18;102302.78;;;19.22
64916;BMP280;51427;-27.442;153.014;2023-05-10T09:09:46;102310.88;;;19.28
64916;BMP280;51427;-27.442;153.014;2023-05-10T09:12:14;102312.34;;;19.17
64916;BMP280;51427;-27.442;153.014;2023-05-10T09:14:43;102319.31;;;19.13
64916;BMP280;51427;-27.442;153.014;2023-05-10T09:17:12;102315.94;;;19.13
64916;BMP280;51427;-27.442;153.014;2023-05-10T09:19:40;102322.22;;;19.06
64916;BMP280;51427;-27.442;153.014;2023-05-10T09:22:07;102331.19;;;19.13
64916;BMP280;51427;-27.442;153.014;2023-05-10T09:24:35;102331.00;;;19.01
64916;BMP280;51427;-27.442;153.014;2023-05-10T09:27:09;102338.94;;;19.10
64916;BMP280;51427;-27.442;153.014;2023-05-10T09:29:43;102346.66;;;19.08
64916;BMP280;51427;-27.442;153.014;2023-05-10T09:32:11;102349.50;;;19.03
64916;BMP280;51427;-27.442;153.014;2023-05-10T09:34:39;102352.09;;;19.01
64916;BMP280;51427;-27.442;153.014;2023-05-10T09:37:07;102348.69;;;19.02
64916;BMP280;51427;-27.442;153.014;2023-05-10T09:39:36;102356.22;;;19.04
64916;BMP280;51427;-27.442;153.014;2023-05-10T09:42:06;102353.16;;;18.97
64916;BMP280;51427;-27.442;153.014;2023-05-10T09:44:35;102352.22;;;18.98
64916;BMP280;51427;-27.442;153.014;2023-05-10T09:47:03;102362.25;;;19.01
64916;BMP280;51427;-27.442;153.014;2023-05-10T09:49:31;102364.34;;;18.93
64916;BMP280;51427;-27.442;153.014;2023-05-10T09:52:04;102371.53;;;18.85
64916;BMP280;51427;-27.442;153.014;2023-05-10T09:54:33;102366.75;;;18.79
64916;BMP280;51427;-27.442;153.014;2023-05-10T09:57:01;102377.81;;;18.78
64916;BMP280;51427;-27.442;153.014;2023-05-10T09:59:29;102371.16;;;18.76
64916;BMP280;51427;-27.442;153.014;2023-05-10T10:02:00;102387.88;;;18.80
64916;BMP280;51427;-27.442;153.014;2023-05-10T10:04:28;102383.78;;;18.77
64916;BMP280;51427;-27.442;153.014;2023-05-10T10:07:01;102376.34;;;18.58
64916;BMP280;51427;-27.442;153.014;2023-05-10T10:09:29;102386.03;;;18.66
64916;BMP280;51427;-27.442;153.014;2023-05-10T10:11:57;102382.16;;;18.60
64916;BMP280;51427;-27.442;153.014;2023-05-10T10:14:26;102391.16;;;18.65
64916;BMP280;51427;-27.442;153.014;2023-05-10T10:16:54;102393.03;;;18.61
64916;BMP280;51427;-27.442;153.014;2023-05-10T10:19:22;102391.84;;;18.52
64916;BMP280;51427;-27.442;153.014;2023-05-10T10:21:50;102397.38;;;18.43
64916;BMP280;51427;-27.442;153.014;2023-05-10T10:24:18;102398.25;;;18.42
64916;BMP280;51427;-27.442;153.014;2023-05-10T10:26:46;102401.69;;;18.41
64916;BMP280;51427;-27.442;153.014;2023-05-10T10:29:59;102400.34;;;18.51
64916;BMP280;51427;-27.442;153.014;2023-05-10T10:35:35;102412.59;;;18.43
64916;BMP280;51427;-27.442;153.014;2023-05-10T10:38:03;102413.03;;;18.34
64916;BMP280;51427;-27.442;153.014;2023-05-10T10:40:32;102414.97;;;18.29
64916;BMP280;51427;-27.442;153.014;2023-05-10T10:43:23;102416.22;;;18.37
64916;BMP280;51427;-27.442;153.014;2023-05-10T10:46:21;102418.97;;;18.33
64916;BMP280;51427;-27.442;153.014;2023-05-10T10:49:09;102425.34;;;18.41
64916;BMP280;51427;-27.442;153.014;2023-05-10T10:51:40;102428.00;;;18.21
64916;BMP280;51427;-27.442;153.014;2023-05-10T10:54:30;102425.31;;;18.24
64916;BMP280;51427;-27.442;153.014;2023-05-10T10:57:15;102420.03;;;18.29
64916;BMP280;51427;-27.442;153.014;2023-05-10T10:59:45;102416.66;;;18.28
64916;BMP280;51427;-27.442;153.014;2023-05-10T11:02:43;102429.09;;;18.16
64916;BMP280;51427;-27.442;153.014;2023-05-10T11:05:41;102426.81;;;18.10
64916;BMP280;51427;-27.442;153.014;2023-05-10T11:08:20;102429.50;;;18.25
64916;BMP280;51427;-27.442;153.014;2023-05-10T11:16:11;102439.44;;;17.93
64916;BMP280;51427;-27.442;153.014;2023-05-10T11:18:40;102432.66;;;17.94
64916;BMP280;51427;-27.442;153.014;2023-05-10T11:21:09;102443.03;;;18.06
64916;BMP280;51427;-27.442;153.014;2023-05-10T11:26:08;102443.78;;;18.08
64916;BMP280;51427;-27.442;153.014;2023-05-10T11:28:46;102441.56;;;18.02
64916;BMP280;51427;-27.442;153.014;2023-05-10T11:31:18;102441.84;;;17.96
64916;BMP280;51427;-27.442;153.014;2023-05-10T11:33:53;102453.38;;;18.02
64916;BMP280;51427;-27.442;153.014;2023-05-10T11:36:28;102449.63;;;18.10
64916;BMP280;51427;-27.442;153.014;2023-05-10T11:38:57;102452.31;;;18.07
64916;BMP280;51427;-27.442;153.014;2023-05-10T11:41:27;102453.78;;;18.11
64916;BMP280;51427;-27.442;153.014;2023-05-10T11:43:55;102445.19;;;18.15
64916;BMP280;51427;-27.442;153.014;2023-05-10T11:46:25;102449.97;;;18.21
64916;BMP280;51427;-27.442;153.014;2023-05-10T11:48:56;102453.94;;;18.26
64916;BMP280;51427;-27.442;153.014;2023-05-10T11:51:25;102452.50;;;18.21
64916;BMP280;51427;-27.442;153.014;2023-05-10T11:53:56;102455.66;;;18.26
64916;BMP280;51427;-27.442;153.014;2023-05-10T11:56:24;102460.56;;;18.29
64916;BMP280;51427;-27.442;153.014;2023-05-10T11:58:56;102457.31;;;18.27
64916;BMP280;51427;-27.442;153.014;2023-05-10T12:01:28;102455.72;;;18.24
64916;BMP280;51427;-27.442;153.014;2023-05-10T12:03:57;102468.78;;;18.34
64916;BMP280;51427;-27.442;153.014;2023-05-10T12:06:31;102463.47;;;18.21
64916;BMP280;51427;-27.442;153.014;2023-05-10T12:08:59;102460.53;;;18.12
64916;BMP280;51427;-27.442;153.014;2023-05-10T12:11:28;102458.19;;;18.26
64916;BMP280;51427;-27.442;153.014;2023-05-10T12:13:56;102468.06;;;18.14
64916;BMP280;51427;-27.442;153.014;2023-05-10T12:16:25;102458.25;;;18.24
64916;BMP280;51427;-27.442;153.014;2023-05-10T12:18:59;102464.84;;;18.10
64916;BMP280;51427;-27.442;153.014;2023-05-10T12:21:28;102470.72;;;18.11
64916;BMP280;51427;-27.442;153.014;2023-05-10T12:24:03;102467.78;;;18.01
64916;BMP280;51427;-27.442;153.014;2023-05-10T12:26:35;102463.91;;;17.94
64916;BMP280;51427;-27.442;153.014;2023-05-10T12:29:17;102465.44;;;17.97
64916;BMP280;51427;-27.442;153.014;2023-05-10T12:31:55;102470.25;;;18.03
64916;BMP280;51427;-27.442;153.014;2023-05-10T12:36:56;102463.31;;;18.06
64916;BMP280;51427;-27.442;153.014;2023-05-10T12:39:24;102463.81;;;18.14
64916;BMP280;51427;-27.442;153.014;2023-05-10T12:41:52;102460.97;;;18.02
64916;BMP280;51427;-27.442;153.014;2023-05-10T12:44:20;102460.03;;;18.04
64916;BMP280;51427;-27.442;153.014;2023-05-10T12:46:47;102460.78;;;18.06
64916;BMP280;51427;-27.442;153.014;2023-05-10T12:49:15;102455.38;;;17.95
64916;BMP280;51427;-27.442;153.014;2023-05-10T12:51:45;102460.03;;;18.04
64916;BMP280;51427;-27.442;153.014;2023-05-10T12:54:13;102465.66;;;17.92
64916;BMP280;51427;-27.442;153.014;2023-05-10T12:56:40;102466.09;;;17.83
64916;BMP280;51427;-27.442;153.014;2023-05-10T12:59:09;102464.03;;;17.91
64916;BMP280;51427;-27.442;153.014;2023-05-10T13:01:36;102463.25;;;17.89
64916;BMP280;51427;-27.442;153.014;2023-05-10T13:04:04;102467.44;;;17.90
64916;BMP280;51427;-27.442;153.014;2023-05-10T13:06:32;102462.78;;;17.81
64916;BMP280;51427;-27.442;153.014;2023-05-10T13:08:59;102459.38;;;17.82
64916;BMP280;51427;-27.442;153.014;2023-05-10T13:11:27;102458.41;;;17.85
64916;BMP280;51427;-27.442;153.014;2023-05-10T13:13:55;102456.63;;;17.68
64916;BMP280;51427;-27.442;153.014;2023-05-10T13:16:23;102453.16;;;17.71
64916;BMP280;51427;-27.442;153.014;2023-05-10T13:18:50;102456.63;;;17.68
64916;BMP280;51427;-27.442;153.014;2023-05-10T13:21:18;102463.41;;;17.68
64916;BMP280;51427;-27.442;153.014;2023-05-10T13:23:46;102453.16;;;17.71
64916;BMP280;51427;-27.442;153.014;2023-05-10T13:26:13;102460.44;;;17.77
64916;BMP280;51427;-27.442;153.014;2023-05-10T13:28:41;102462.38;;;17.72
64916;BMP280;51427;-27.442;153.014;2023-05-10T13:31:09;102458.00;;;17.57
64916;BMP280;51427;-27.442;153.014;2023-05-10T13:33:37;102451.69;;;17.66
64916;BMP280;51427;-27.442;153.014;2023-05-10T13:36:07;102465.25;;;17.65
64916;BMP280;51427;-27.442;153.014;2023-05-10T13:38:35;102462.34;;;17.54
64916;BMP280;51427;-27.442;153.014;2023-05-10T13:41:03;102469.22;;;17.52
64916;BMP280;51427;-27.442;153.014;2023-05-10T13:43:30;102463.59;;;17.45
64916;BMP280;51427;-27.442;153.014;2023-05-10T13:45:58;102463.53;;;17.47
64916;BMP280;51427;-27.442;153.014;2023-05-10T13:48:26;102458.81;;;17.58
64916;BMP280;51427;-27.442;153.014;2023-05-10T13:50:54;102458.94;;;17.55
64916;BMP280;51427;-27.442;153.014;2023-05-10T13:53:21;102457.41;;;17.51
64916;BMP280;51427;-27.442;153.014;2023-05-10T13:55:49;102456.63;;;17.50
64916;BMP280;51427;-27.442;153.014;2023-05-10T13:58:17;102452.59;;;17.46
64916;BMP280;51427;-27.442;153.014;2023-05-10T14:00:44;102451.88;;;17.43
64916;BMP280;51427;-27.442;153.014;2023-05-10T14:03:12;102452.72;;;17.43
64916;BMP280;51427;-27.442;153.014;2023-05-10T14:05:40;102448.34;;;17.47
64916;BMP280;51427;-27.442;153.014;2023-05-10T14:08:07;102449.56;;;17.57
64916;BMP280;51427;-27.442;153.014;2023-05-10T14:10:36;102446.00;;;17.42
64916;BMP280;51427;-27.442;153.014;2023-05-10T14:13:04;102452.00;;;17.40
64916;BMP280;51427;-27.442;153.014;2023-05-10T14:15:33;102454.63;;;17.38